createdAt,value
2023-04-01T00:00:26.933Z,99029.44
2023-04-01T00:03:30.349Z,99031.41
2023-04-01T00:06:32.894Z,99032.81
2023-04-01T00:09:35.425Z,99032.56
2023-04-01T00:12:38.622Z,99034.94
2023-04-01T00:15:40.894Z,99026.97
2023-04-01T00:18:43.158Z,99029.81
2023-04-01T00:21:45.393Z,99028.72
2023-04-01T00:24:47.794Z,99026.75
2023-04-01T00:27:50.433Z,99032.03
2023-04-01T00:30:52.927Z,99028.97
2023-04-01T00:33:55.177Z,99021.38
2023-04-01T00:36:57.576Z,99016.63
2023-04-01T00:40:00.199Z,99018.31
2023-04-01T00:43:03.303Z,99014.41
2023-04-01T00:46:05.680Z,99007.81
2023-04-01T00:49:08.073Z,99007.38
2023-04-01T00:52:12.888Z,99006.25
2023-04-01T00:55:15.994Z,99009.59
2023-04-01T00:58:19.928Z,98998.97
2023-04-01T01:01:24.136Z,99005.28
2023-04-01T01:04:27.509Z,99011.25
2023-04-01T01:07:38.336Z,99005.13
2023-04-01T01:10:40.910Z,99012.09
2023-04-01T01:14:14.885Z,99012.25
2023-04-01T01:17:35.684Z,99016.88
2023-04-01T01:21:09.303Z,99009.19
2023-04-01T01:24:26.734Z,99001.22
2023-04-01T01:27:29.763Z,99002.91
2023-04-01T01:30:50.020Z,98997.59
2023-04-01T01:34:19.407Z,98997.19
2023-04-01T01:37:24.252Z,98996.19
2023-04-01T01:40:27.901Z,98990.88
2023-04-01T01:43:38.134Z,98995.38
2023-04-01T01:46:42.303Z,98995.38
2023-04-01T01:49:44.979Z,98993.41
2023-04-01T01:52:47.290Z,98995.09
2023-04-01T01:55:50.754Z,98997.03
2023-04-01T01:58:54.100Z,98997.75
2023-04-01T02:01:58.053Z,98995.38
2023-04-01T02:05:00.887Z,98999.84
2023-04-01T02:08:10.120Z,98990.94
2023-04-01T02:11:15.403Z,98994.69
2023-04-01T02:14:26.065Z,98996.38
2023-04-01T02:17:31.070Z,98988.41
2023-04-01T02:20:33.401Z,98984.78
2023-04-01T02:23:37.240Z,98979.19
2023-04-01T02:26:40.132Z,98978.03
2023-04-01T02:29:42.497Z,98974.72
2023-04-01T02:32:45.753Z,98972.06
2023-04-01T02:35:48.394Z,98974.84
2023-04-01T02:38:51.187Z,98970.53
2023-04-01T02:41:53.579Z,98973.03
2023-04-01T02:44:55.823Z,98968.28
2023-04-01T02:47:58.351Z,98970.81
2023-04-01T02:51:00.781Z,98971.50
2023-04-01T02:54:03.374Z,98977.50
2023-04-01T02:57:05.777Z,98981.97
2023-04-01T03:00:12.263Z,98980.31
2023-04-01T03:03:14.939Z,98975.13
2023-04-01T03:06:18.264Z,98976.09
2023-04-01T03:09:20.906Z,98975.28
2023-04-01T03:12:23.191Z,98973.03
2023-04-01T03:15:27.591Z,98960.78
2023-04-01T03:18:30.649Z,98957.41
2023-04-01T03:21:33.867Z,98966.38
2023-04-01T03:24:36.957Z,98966.38
2023-04-01T03:27:39.636Z,98981.44
2023-04-01T03:30:43.173Z,98986.63
2023-04-01T03:33:45.979Z,98994.59
2023-04-01T03:36:48.226Z,98994.88
2023-04-01T03:39:50.732Z,98997.94
2023-04-01T03:42:53.569Z,98997.69
2023-04-01T03:45:55.903Z,98999.63
2023-04-01T03:48:58.223Z,98996.28
2023-04-01T03:52:00.570Z,99004.38
2023-04-01T03:55:03.141Z,99005.50
2023-04-01T03:58:07.422Z,99003.84
2023-04-01T04:01:22.188Z,99002.84
2023-04-01T04:04:28.082Z,98998.94
2023-04-01T04:07:30.685Z,98998.81
2023-04-01T04:10:39.537Z,99005.22
2023-04-01T04:13:42.396Z,99007.19
2023-04-01T04:16:45.466Z,99005.38
2023-04-01T04:19:47.792Z,99002.72
2023-04-01T04:22:50.763Z,98996.00
2023-04-01T04:25:56.053Z,98995.16
2023-04-01T04:28:58.716Z,98998.66
2023-04-01T04:32:01.605Z,99001.88
2023-04-01T04:35:04.172Z,98993.66
2023-04-01T04:38:06.588Z,98992.09
2023-04-01T04:41:13.800Z,98987.34
2023-04-01T04:44:17.632Z,98985.09
2023-04-01T04:47:20.070Z,98979.66
2023-04-01T04:50:22.849Z,98982.31
2023-04-01T04:53:26.390Z,98986.63
2023-04-01T04:56:28.716Z,98987.47
2023-04-01T04:59:40.229Z,98987.34
2023-04-01T05:02:47.732Z,98990.09
2023-04-01T05:05:52.160Z,98991.50
2023-04-01T05:08:54.522Z,98988.56
2023-04-01T05:11:56.857Z,98987.16
2023-04-01T05:15:00.915Z,98984.50
2023-04-01T05:18:03.776Z,98989.63
2023-04-01T05:21:08.529Z,98991.22
2023-04-01T05:24:11.044Z,98996.16
2023-04-01T05:27:13.697Z,99003.34
2023-04-01T05:30:17.468Z,98993.25
2023-04-01T05:33:34.626Z,98999.97
2023-04-01T05:36:37.580Z,99004.09
2023-04-01T05:39:39.833Z,99010.91
2023-04-01T05:42:43.196Z,99004.19
2023-04-01T05:45:45.727Z,98998.41
2023-04-01T05:48:48.028Z,98995.38
2023-04-01T05:51:50.661Z,98990.56
2023-04-01T05:54:53.293Z,98988.56
2023-04-01T05:57:55.605Z,98989.25
2023-04-01T06:01:09.494Z,98996.97
2023-04-01T06:04:18.471Z,98994.22
2023-04-01T06:07:21.578Z,99002.75
2023-04-01T06:10:24.862Z,99002.91
2023-04-01T06:13:42.448Z,98994.91
2023-04-01T06:16:53.604Z,98997.56
2023-04-01T06:20:07.032Z,98988.41
2023-04-01T06:23:28.606Z,98994.31
2023-04-01T06:26:43.284Z,98991.09
2023-04-01T06:29:58.022Z,98992.88
2023-04-01T06:33:12.372Z,98993.09
2023-04-01T06:36:21.050Z,98996.38
2023-04-01T06:39:29.901Z,98991.28
2023-04-01T06:42:44.100Z,98999.16
2023-04-01T06:46:19.280Z,98993.72
2023-04-01T06:50:26.371Z,98999.53
2023-04-01T06:53:56.734Z,98997.19
2023-04-01T06:57:27.950Z,99003.56
2023-04-01T07:00:34.266Z,99004.88
2023-04-01T07:03:37.836Z,99006.47
2023-04-01T07:06:51.104Z,99004.16
2023-04-01T07:09:56.761Z,98996.91
2023-04-01T07:13:26.111Z,98994.38
2023-04-01T07:16:36.276Z,98991.53
2023-04-01T07:19:57.248Z,98992.28
2023-04-01T07:23:01.935Z,98987.75
2023-04-01T07:26:24.608Z,98988.06
2023-04-01T07:29:33.078Z,98995.91
2023-04-01T07:32:51.762Z,98994.81
2023-04-01T07:36:25.532Z,98991.66
2023-04-01T07:39:59.796Z,98987.00
2023-04-01T07:43:11.760Z,98988.53
2023-04-01T07:46:31.782Z,98990.69
2023-04-01T07:49:40.566Z,98994.19
2023-04-01T07:52:59.461Z,98994.72
2023-04-01T07:56:13.020Z,98996.66
2023-04-01T07:59:49.209Z,98996.19
2023-04-01T08:03:26.316Z,99002.31
2023-04-01T08:06:38.133Z,99003.47
2023-04-01T08:10:26.587Z,99015.25
2023-04-01T08:14:37.069Z,99018.63
2023-04-01T08:18:51.027Z,99011.81
2023-04-01T08:21:53.997Z,99018.88
2023-04-01T08:25:01.101Z,99022.41
2023-04-01T08:28:21.168Z,99018.34
2023-04-01T08:31:41.959Z,99008.19
2023-04-01T08:34:47.170Z,99017.69
2023-04-01T08:38:03.340Z,99008.38
2023-04-01T08:41:13.067Z,99020.56
2023-04-01T08:49:14.377Z,99009.25
2023-04-01T08:53:01.656Z,99007.56
2023-04-01T08:56:19.818Z,99013.50
2023-04-01T08:59:46.920Z,99016.97
2023-04-01T09:03:33.825Z,99013.44
2023-04-01T09:06:47.177Z,99023.13
2023-04-01T09:10:39.100Z,99031.16
2023-04-01T09:14:06.982Z,99029.50
2023-04-01T09:17:30.928Z,99019.91
2023-04-01T09:21:26.876Z,99010.75
2023-04-01T09:24:41.340Z,99015.47
2023-04-01T09:27:59.493Z,99011.72
2023-04-01T09:31:07.530Z,99020.88
2023-04-01T09:34:33.049Z,99014.59
2023-04-01T09:37:54.793Z,99030.47
2023-04-01T09:41:36.875Z,99026.81
2023-04-01T09:45:08.947Z,99026.97
2023-04-01T09:48:27.417Z,99028.63
2023-04-01T09:51:52.839Z,99030.16
2023-04-01T09:55:01.514Z,99032.50
2023-04-01T09:58:43.545Z,99032.31
2023-04-01T10:02:51.953Z,99038.66
2023-04-01T10:06:42.039Z,99036.81
2023-04-01T10:10:17.802Z,99037.66
2023-04-01T10:13:58.409Z,99036.31
2023-04-01T10:17:12.724Z,99040.31
2023-04-01T10:20:30.291Z,99047.31
2023-04-01T10:24:09.320Z,99039.84
2023-04-01T10:27:59.136Z,99042.31
2023-04-01T10:31:21.182Z,99034.31
2023-04-01T10:34:35.576Z,99041.81
2023-04-01T10:38:03.390Z,99038.66
2023-04-01T10:41:15.811Z,99031.31
2023-04-01T10:45:16.686Z,99027.31
2023-04-01T10:48:45.566Z,99034.44
2023-04-01T10:52:05.685Z,99035.13
2023-04-01T10:56:02.226Z,99030.63
2023-04-01T10:59:46.665Z,99030.63
2023-04-01T11:03:28.695Z,99018.59
2023-04-01T11:07:04.890Z,99020.28
2023-04-01T11:10:44.230Z,99014.59
2023-04-01T11:13:56.352Z,99015.94
2023-04-01T11:17:28.401Z,99003.91
2023-04-01T11:20:46.033Z,99009.75
2023-04-01T11:24:05.803Z,99017.94
2023-04-01T11:27:22.909Z,99017.44
2023-04-01T11:30:59.689Z,99013.91
2023-04-01T11:34:17.840Z,99012.22
2023-04-01T11:37:23.479Z,99009.81
2023-04-01T11:41:27.813Z,99014.19
2023-04-01T11:45:09.079Z,99020.75
2023-04-01T11:48:30.058Z,99029.94
2023-04-01T11:51:46.899Z,99028.63
2023-04-01T11:55:04.873Z,99033.00
2023-04-01T11:58:42.192Z,99039.00
2023-04-01T12:02:00.099Z,99024.13
2023-04-01T12:05:22.120Z,99033.00
2023-04-01T12:09:01.732Z,99030.63
2023-04-01T12:12:22.161Z,99039.97
2023-04-01T12:15:30.324Z,99039.00
2023-04-01T12:18:47.692Z,99033.00
2023-04-01T12:22:27.019Z,99042.31
2023-04-01T12:25:53.790Z,99030.97
2023-04-01T12:29:33.136Z,99022.63
2023-04-01T12:33:20.287Z,99032.31
2023-04-01T12:36:41.803Z,99026.63
2023-04-01T12:40:02.608Z,99032.97
2023-04-01T12:43:23.247Z,99036.13
2023-04-01T12:46:27.536Z,99019.25
2023-04-01T12:49:40.311Z,99024.09
2023-04-01T12:52:48.520Z,99009.56
2023-04-01T12:55:53.537Z,99011.91
2023-04-01T12:59:01.832Z,99008.72
2023-04-01T13:02:12.591Z,99014.53
2023-04-01T13:05:14.883Z,99004.16
2023-04-01T13:08:17.761Z,99007.38
2023-04-01T13:11:24.136Z,99007.50
2023-04-01T13:14:31.736Z,99006.16
2023-04-01T13:17:49.602Z,99000.78
2023-04-01T13:21:07.454Z,99005.84
2023-04-01T13:24:41.731Z,99004.53
2023-04-01T13:27:52.092Z,99015.06
2023-04-01T13:31:04.263Z,99014.75
2023-04-01T13:34:14.476Z,99024.94
2023-04-01T13:37:28.343Z,99014.41
2023-04-01T13:40:42.803Z,99021.41
2023-04-01T13:44:12.754Z,99013.41
2023-04-01T13:47:36.357Z,99021.41
2023-04-01T13:50:52.889Z,99022.28
2023-04-01T13:54:07.287Z,99024.94
2023-04-01T13:57:24.656Z,99036.97
2023-04-01T14:00:33.012Z,99045.84
2023-04-01T14:03:50.609Z,99046.84
2023-04-01T14:07:21.267Z,99042.53
2023-04-01T14:11:08.279Z,99045.16
2023-04-01T14:14:17.418Z,99046.69
2023-04-01T14:17:25.833Z,99042.50
2023-04-01T14:20:41.788Z,99033.13
2023-04-01T14:24:15.084Z,99035.81
2023-04-01T14:27:31.767Z,99037.31
2023-04-01T14:30:56.994Z,99032.66
2023-04-01T14:34:11.480Z,99029.28
2023-04-01T14:37:31.841Z,99029.97
2023-04-01T14:40:55.344Z,99027.63
2023-04-01T14:44:18.883Z,99025.97
2023-04-01T14:47:36.375Z,99017.94
2023-04-01T14:50:53.584Z,99026.97
2023-04-01T14:54:43.424Z,99028.16
2023-04-01T14:58:19.062Z,99022.63
2023-04-01T15:01:33.469Z,99021.28
2023-04-01T15:04:51.001Z,99021.78
2023-04-01T15:07:57.904Z,99018.94
2023-04-01T15:11:34.342Z,99012.28
2023-04-01T15:14:48.767Z,99012.28
2023-04-01T15:18:21.380Z,99023.63
2023-04-01T15:21:29.193Z,99020.31
2023-04-01T15:24:46.080Z,99032.50
2023-04-01T15:28:03.230Z,99024.63
2023-04-01T15:31:14.898Z,99029.63
2023-04-01T15:34:49.582Z,99027.28
2023-04-01T15:37:57.042Z,99026.25
2023-04-01T15:41:31.615Z,99024.97
2023-04-01T15:45:07.193Z,99033.97
2023-04-01T15:48:27.464Z,99041.16
2023-04-01T15:52:05.140Z,99046.66
2023-04-01T15:55:07.799Z,99042.34
2023-04-01T15:58:16.342Z,99047.84
2023-04-01T16:01:30.998Z,99057.38
2023-04-01T16:04:48.051Z,99043.00
2023-04-01T16:07:56.189Z,99051.34
2023-04-01T16:11:03.718Z,99042.84
2023-04-01T16:14:20.449Z,99052.84
2023-04-01T16:17:38.020Z,99064.38
2023-04-01T16:20:53.213Z,99064.22
2023-04-01T16:24:25.147Z,99060.69
2023-04-01T16:27:45.498Z,99064.03
2023-04-01T16:30:57.319Z,99068.03
2023-04-01T16:34:22.466Z,99060.38
2023-04-01T16:37:37.403Z,99059.69
2023-04-01T16:41:02.588Z,99071.72
2023-04-01T16:44:23.751Z,99068.72
2023-04-01T16:47:40.011Z,99075.06
2023-04-01T16:51:06.086Z,99075.03
2023-04-01T16:54:37.212Z,99083.03
2023-04-01T16:57:52.256Z,99091.22
2023-04-01T17:01:02.012Z,99087.91
2023-04-01T17:04:26.710Z,99081.38
2023-04-01T17:07:38.014Z,99094.22
2023-04-01T17:11:02.290Z,99099.22
2023-04-01T17:14:31.502Z,99095.03
2023-04-01T17:17:39.699Z,99094.00
2023-04-01T17:20:45.530Z,99102.34
2023-04-01T17:24:00.951Z,99098.47
2023-04-01T17:27:03.092Z,99106.47
2023-04-01T17:30:14.312Z,99109.25
2023-04-01T17:34:09.974Z,99110.41
2023-04-01T17:37:22.067Z,99113.56
2023-04-01T17:40:44.958Z,99118.25
2023-04-01T17:44:19.570Z,99117.03
2023-04-01T17:47:30.924Z,99128.84
2023-04-01T17:51:09.354Z,99123.34
2023-04-01T17:54:33.606Z,99130.13
2023-04-01T17:57:55.692Z,99131.63
2023-04-01T18:01:07.351Z,99141.75
2023-04-01T18:04:09.664Z,99147.25
2023-04-01T18:07:31.296Z,99152.03
2023-04-01T18:10:48.574Z,99153.69
2023-04-01T18:14:14.454Z,99158.63
2023-04-01T18:17:27.122Z,99168.13
2023-04-01T18:20:37.924Z,99170.09
2023-04-01T18:23:52.232Z,99179.91
2023-04-01T18:27:05.575Z,99178.53
2023-04-01T18:30:19.978Z,99176.56
2023-04-01T18:33:25.348Z,99181.91
2023-04-01T18:36:53.032Z,99190.03
2023-04-01T18:40:00.784Z,99192.19
2023-04-01T18:43:11.703Z,99200.50
2023-04-01T18:46:52.575Z,99192.81
2023-04-01T18:50:24.741Z,99207.75
2023-04-01T18:53:30.702Z,99207.38
2023-04-01T18:56:41.523Z,99200.34
2023-04-01T18:59:48.140Z,99203.31
2023-04-01T19:03:02.177Z,99200.59
2023-04-01T19:06:35.275Z,99210.63
2023-04-01T19:09:49.220Z,99211.47
2023-04-01T19:13:28.632Z,99217.63
2023-04-01T19:17:07.561Z,99215.13
2023-04-01T19:20:42.096Z,99212.31
2023-04-01T19:24:02.130Z,99213.78
2023-04-01T19:27:28.790Z,99217.22
2023-04-01T19:30:56.881Z,99213.38
2023-04-01T19:34:10.720Z,99224.22
2023-04-01T19:37:23.787Z,99223.53
2023-04-01T19:40:44.143Z,99218.47
2023-04-01T19:44:07.849Z,99228.28
2023-04-01T19:47:28.197Z,99239.09
2023-04-01T19:50:51.659Z,99243.75
2023-04-01T19:54:17.041Z,99236.19
2023-04-01T19:57:37.715Z,99236.03
2023-04-01T20:00:51.520Z,99238.72
2023-04-01T20:04:03.638Z,99248.25
2023-04-01T20:07:31.825Z,99235.69
2023-04-01T20:10:57.694Z,99242.81
2023-04-01T20:14:14.481Z,99247.84
2023-04-01T20:17:26.114Z,99251.09
2023-04-01T20:20:31.112Z,99241.72
2023-04-01T20:23:57.352Z,99242.69
2023-04-01T20:27:19.637Z,99246.91
2023-04-01T20:30:49.689Z,99244.69
2023-04-01T20:34:17.790Z,99242.34
2023-04-01T20:37:26.106Z,99252.28
2023-04-01T20:40:34.612Z,99243.50
2023-04-01T20:43:44.078Z,99256.50
2023-04-01T20:46:57.340Z,99260.97
2023-04-01T20:50:41.482Z,99264.59
2023-04-01T20:53:48.029Z,99279.72
2023-04-01T20:57:20.822Z,99272.72
2023-04-01T21:00:33.331Z,99275.50
2023-04-01T21:03:50.798Z,99278.03
2023-04-01T21:06:55.911Z,99275.50
2023-04-01T21:10:35.566Z,99281.94
2023-04-01T21:13:55.896Z,99276.09
2023-04-01T21:17:07.202Z,99278.06
2023-04-01T21:20:20.046Z,99284.75
2023-04-01T21:23:56.533Z,99278.59
2023-04-01T21:27:26.219Z,99286.72
2023-04-01T21:31:16.638Z,99289.81
2023-04-01T21:34:44.986Z,99298.75
2023-04-01T21:38:05.564Z,99295.66
2023-04-01T21:41:32.620Z,99291.63
2023-04-01T21:44:49.969Z,99302.53
2023-04-01T21:48:08.658Z,99299.88
2023-04-01T21:51:27.700Z,99303.06
2023-04-01T21:54:48.296Z,99302.47
2023-04-01T21:58:22.103Z,99302.34
2023-04-01T22:01:46.396Z,99302.59
2023-04-01T22:04:53.447Z,99290.28
2023-04-01T22:08:00.773Z,99300.88
2023-04-01T22:11:05.893Z,99307.78
2023-04-01T22:14:35.130Z,99312.06
2023-04-01T22:17:49.680Z,99311.34
2023-04-01T22:21:22.501Z,99305.72
2023-04-01T22:24:36.883Z,99314.94
2023-04-01T22:27:52.287Z,99307.81
2023-04-01T22:31:01.658Z,99314.66
2023-04-01T22:34:09.968Z,99321.81
2023-04-01T22:37:12.218Z,99325.44
2023-04-01T22:40:23.645Z,99331.06
2023-04-01T22:43:30.759Z,99334.44
2023-04-01T22:47:00.456Z,99335.63
2023-04-01T22:50:16.213Z,99330.63
2023-04-01T22:53:30.214Z,99332.63
2023-04-01T22:56:38.724Z,99338.09
2023-04-01T22:59:51.819Z,99342.16
2023-04-01T23:03:14.487Z,99349.81
2023-04-01T23:06:22.283Z,99347.88
2023-04-01T23:09:34.483Z,99354.75
2023-04-01T23:12:36.762Z,99352.09
2023-04-01T23:15:39.205Z,99355.59
2023-04-01T23:18:52.749Z,99354.03
2023-04-01T23:22:21.013Z,99361.03
2023-04-01T23:25:23.172Z,99366.59
2023-04-01T23:28:41.126Z,99369.44
2023-04-01T23:31:45.945Z,99359.34
2023-04-01T23:34:57.297Z,99364.13
2023-04-01T23:38:00.393Z,99363.31
2023-04-01T23:41:03.515Z,99357.41
2023-04-01T23:44:12.304Z,99371.13
2023-04-01T23:47:22.123Z,99374.06
2023-04-01T23:50:26.065Z,99380.69
2023-04-01T23:53:34.550Z,99379.41
2023-04-01T23:56:43.605Z,99388.09
